Time;durP1;ratioP1;P1;durP2;ratioP2;P2;SDS_P1;SDS_P2;PMS_P1;PMS_P2;Temp;Humidity;BMP_temperature;BMP_pressure;BME280_temperature;BME280_humidity;BME280_pressure;Samples;Min_cycle;Max_cycle;Signal;HPM_P1;HPM_P2
2022/03/18 00:02:24;;;;;;;29.17;9.50;;;0.90;99.90;;;;;;4966233;28;20045;-88
2022/03/18 00:04:51;;;;;;;27.00;8.93;;;0.80;99.90;;;;;;4998006;28;20038;-87
2022/03/18 00:07:21;;;;;;;30.27;10.00;;;0.80;99.90;;;;;;4997850;28;20137;-96
2022/03/18 00:09:48;;;;;;;30.30;9.23;;;0.70;99.90;;;;;;4998064;28;20096;-95
2022/03/18 00:12:14;;;;;;;33.37;10.10;;;0.70;99.90;;;;;;4998094;28;20124;-95
2022/03/18 00:14:41;;;;;;;30.77;10.00;;;0.60;99.90;;;;;;4981842;28;20096;-89
2022/03/18 00:17:08;;;;;;;28.63;10.10;;;0.60;99.90;;;;;;4997786;28;20128;-89
2022/03/18 00:19:39;;;;;;;31.77;11.00;;;0.60;99.90;;;;;;4997915;28;20400;-94
2022/03/18 00:22:06;;;;;;;29.87;10.20;;;0.50;99.90;;;;;;4997819;28;20136;-89
2022/03/18 00:24:32;;;;;;;32.50;12.50;;;0.40;99.90;;;;;;4981381;28;20042;-96
2022/03/18 00:27:03;;;;;;;31.50;12.30;;;0.40;99.90;;;;;;4997690;28;20060;-95
2022/03/18 00:29:30;;;;;;;32.73;11.30;;;0.40;99.90;;;;;;4998031;28;20045;-95
2022/03/18 00:31:56;;;;;;;40.60;13.10;;;0.50;99.90;;;;;;4997473;28;20052;-93
2022/03/18 00:34:22;;;;;;;29.40;11.83;;;0.60;99.90;;;;;;4997288;28;20049;-88
2022/03/18 00:36:48;;;;;;;38.77;12.97;;;0.60;99.90;;;;;;4997332;28;20046;-89
2022/03/18 00:39:14;;;;;;;37.13;13.50;;;0.60;99.90;;;;;;4997579;28;20536;-89
2022/03/18 00:41:42;;;;;;;29.73;13.17;;;0.60;99.90;;;;;;4997201;28;20064;-88
2022/03/18 00:44:08;;;;;;;36.53;13.27;;;0.70;99.90;;;;;;4997455;28;20067;-94
2022/03/18 00:46:34;;;;;;;33.03;11.97;;;0.70;99.90;;;;;;4980818;28;20511;-90
2022/03/18 00:54:29;;;;;;;35.97;12.10;;;0.60;99.90;;;;;;4998840;28;20058;-89
2022/03/18 00:56:54;;;;;;;37.60;11.80;;;0.60;99.90;;;;;;4980608;28;20053;-89
2022/03/18 00:59:20;;;;;;;33.30;12.87;;;0.40;99.90;;;;;;4981059;28;20547;-88
2022/03/18 01:01:46;;;;;;;34.03;13.73;;;0.40;99.90;;;;;;4996927;28;20069;-94
2022/03/18 01:04:12;;;;;;;46.67;17.07;;;0.40;99.90;;;;;;4997175;28;20053;-94
2022/03/18 01:06:37;;;;;;;40.47;15.47;;;0.40;99.90;;;;;;4980517;28;20452;-93
2022/03/18 01:09:04;;;;;;;43.53;16.93;;;0.50;99.90;;;;;;4996701;28;20038;-91
2022/03/18 01:11:32;;;;;;;43.10;17.43;;;0.60;99.90;;;;;;4997848;28;20417;-96
2022/03/18 01:13:58;;;;;;;42.93;18.77;;;0.80;99.90;;;;;;4997810;28;20432;-95
2022/03/18 01:16:24;;;;;;;44.87;17.63;;;1.10;99.90;;;;;;5012920;28;20129;-94
2022/03/18 01:18:50;;;;;;;50.30;18.27;;;1.00;99.90;;;;;;4997015;28;20121;-89
2022/03/18 01:21:16;;;;;;;42.70;17.10;;;1.10;99.90;;;;;;4980568;28;20046;-95
2022/03/18 01:23:42;;;;;;;49.63;17.80;;;1.10;99.90;;;;;;4980865;28;20053;-94
2022/03/18 01:26:07;;;;;;;53.20;18.07;;;1.20;99.90;;;;;;4980287;28;20083;-88
2022/03/18 01:28:33;;;;;;;49.93;18.60;;;1.20;99.90;;;;;;4980630;28;20522;-89
2022/03/18 01:30:59;;;;;;;42.73;18.20;;;1.20;99.90;;;;;;4996562;28;20517;-93
2022/03/18 01:33:25;;;;;;;37.60;17.87;;;1.20;99.90;;;;;;4980568;28;20042;-95
2022/03/18 01:35:51;;;;;;;41.63;17.90;;;1.20;99.90;;;;;;4980402;28;20077;-95
2022/03/18 01:38:16;;;;;;;44.97;17.07;;;1.20;99.90;;;;;;4980326;28;20085;-88
2022/03/18 01:40:42;;;;;;;46.87;17.10;;;1.20;99.90;;;;;;4980300;28;20056;-95
2022/03/18 01:43:09;;;;;;;48.33;18.20;;;1.20;99.90;;;;;;4980738;28;20077;-89
2022/03/18 01:45:35;;;;;;;47.53;18.57;;;1.40;99.90;;;;;;4996052;28;20091;-94
2022/03/18 01:48:02;;;;;;;42.47;19.63;;;1.20;99.90;;;;;;5012883;28;20562;-88
2022/03/18 01:50:27;;;;;;;47.00;19.37;;;1.20;99.90;;;;;;4996316;28;20042;-94
2022/03/18 01:52:53;;;;;;;47.13;18.13;;;1.20;99.90;;;;;;4979925;28;20431;-93
2022/03/18 01:55:24;;;;;;;67.07;20.23;;;1.20;99.90;;;;;;4980020;28;20050;-89
2022/03/18 01:57:50;;;;;;;41.50;18.57;;;1.20;99.90;;;;;;4996421;28;20081;-89
2022/03/18 02:00:18;;;;;;;45.03;18.97;;;1.20;99.90;;;;;;4996144;28;20132;-88
2022/03/18 02:02:44;;;;;;;57.70;21.77;;;1.20;99.90;;;;;;4996504;28;20042;-94
2022/03/18 02:05:10;;;;;;;49.23;18.10;;;1.30;99.90;;;;;;4997658;28;20042;-88
2022/03/18 02:07:37;;;;;;;42.23;18.50;;;1.30;99.90;;;;;;4984102;28;20080;-94
2022/03/18 02:10:04;;;;;;;53.27;21.30;;;1.20;99.90;;;;;;5000205;28;20045;-95
2022/03/18 02:12:29;;;;;;;55.53;22.53;;;1.30;99.90;;;;;;5000682;28;20046;-95
2022/03/18 02:14:55;;;;;;;50.70;22.40;;;1.30;99.90;;;;;;4999723;28;20049;-88
2022/03/18 02:17:21;;;;;;;43.40;19.87;;;1.40;99.90;;;;;;4983773;28;20469;-94
2022/03/18 02:19:48;;;;;;;47.67;19.33;;;1.30;99.90;;;;;;4983535;28;20042;-88
2022/03/18 02:22:25;;;;;;;50.67;20.73;;;1.40;99.90;;;;;;4983615;28;20061;-89
2022/03/18 02:24:55;;;;;;;49.63;20.33;;;1.40;99.90;;;;;;5016529;28;20064;-96
2022/03/18 02:27:21;;;;;;;44.20;19.00;;;1.40;99.90;;;;;;5016370;28;20073;-96
2022/03/18 02:29:48;;;;;;;47.77;19.70;;;1.50;99.90;;;;;;4983588;28;20057;-88
2022/03/18 02:32:14;;;;;;;52.93;20.27;;;1.40;99.90;;;;;;5015769;28;20054;-89
2022/03/18 02:34:40;;;;;;;45.70;19.17;;;1.40;99.90;;;;;;5016059;28;20057;-90
2022/03/18 02:37:07;;;;;;;42.30;18.23;;;1.30;99.90;;;;;;5015976;28;20496;-89
2022/03/18 02:39:33;;;;;;;47.00;19.73;;;1.30;99.90;;;;;;5000511;28;20045;-95
2022/03/18 02:42:00;;;;;;;49.80;20.43;;;1.30;99.90;;;;;;5015820;28;20042;-95
2022/03/18 02:44:26;;;;;;;48.23;22.97;;;1.30;99.90;;;;;;4983489;28;20308;-93
2022/03/18 02:46:52;;;;;;;55.43;24.87;;;1.30;99.90;;;;;;4999431;28;20045;-89
2022/03/18 02:49:19;;;;;;;45.43;20.37;;;1.40;99.90;;;;;;4999685;28;20133;-89
2022/03/18 02:51:45;;;;;;;50.17;19.70;;;1.40;99.90;;;;;;4999188;28;20134;-94
2022/03/18 02:54:12;;;;;;;40.93;20.20;;;1.40;99.90;;;;;;4983395;28;20129;-88
2022/03/18 02:56:38;;;;;;;43.47;19.97;;;1.40;99.90;;;;;;4983128;28;20141;-89
2022/03/18 02:59:05;;;;;;;48.23;22.30;;;1.50;99.90;;;;;;5015452;28;20042;-94
2022/03/18 03:01:31;;;;;;;33.03;18.43;;;1.40;99.90;;;;;;4998909;28;20042;-93
2022/03/18 03:03:58;;;;;;;52.77;20.87;;;1.50;99.90;;;;;;4999267;28;20050;-94
2022/03/18 03:09:08;;;;;;;41.57;19.90;;;1.60;99.90;;;;;;5001770;28;20105;-89
2022/03/18 03:11:34;;;;;;;38.33;20.47;;;1.70;99.90;;;;;;4983078;28;20049;-94
2022/03/18 03:14:01;;;;;;;41.23;21.63;;;1.90;99.90;;;;;;4999192;28;20076;-94
2022/03/18 03:16:27;;;;;;;36.77;21.50;;;1.90;99.90;;;;;;4997946;28;20477;-89
2022/03/18 03:18:53;;;;;;;43.40;20.60;;;2.00;99.90;;;;;;4998882;28;20129;-89
2022/03/18 03:21:19;;;;;;;45.77;20.10;;;2.20;99.90;;;;;;4998603;28;20213;-90
2022/03/18 03:23:45;;;;;;;46.47;21.57;;;2.00;99.90;;;;;;4998592;28;20413;-90
2022/03/18 03:26:12;;;;;;;41.03;20.00;;;2.10;99.90;;;;;;5015192;28;20076;-89
2022/03/18 03:28:38;;;;;;;41.77;19.53;;;2.20;99.90;;;;;;4998923;28;20042;-94
2022/03/18 03:31:04;;;;;;;40.77;21.60;;;2.20;99.90;;;;;;4998755;28;20057;-94
2022/03/18 03:33:33;;;;;;;43.28;20.10;;;2.40;99.90;;;;;;4998781;28;20041;-95
2022/03/18 03:35:58;;;;;;;41.17;19.97;;;2.40;99.90;;;;;;4999088;28;20408;-89
2022/03/18 03:38:25;;;;;;;38.73;20.77;;;2.50;99.90;;;;;;5015218;28;20041;-89
2022/03/18 03:40:51;;;;;;;44.87;21.30;;;2.60;99.90;;;;;;4998281;28;20052;-89
2022/03/18 03:43:17;;;;;;;35.00;20.17;;;2.60;99.90;;;;;;4982685;28;20038;-95
2022/03/18 03:45:43;;;;;;;38.80;19.93;;;2.80;99.90;;;;;;4998668;28;20068;-89
2022/03/18 03:48:10;;;;;;;32.90;18.67;;;2.80;99.90;;;;;;5014948;28;20093;-89
2022/03/18 03:50:37;;;;;;;39.60;20.33;;;2.90;99.90;;;;;;4982439;28;20049;-89
2022/03/18 03:53:03;;;;;;;43.97;18.85;;;3.00;99.90;;;;;;5014719;28;20304;-95
2022/03/18 03:55:30;;;;;;;32.35;18.83;;;3.00;99.90;;;;;;4982355;28;20054;-95
2022/03/18 03:57:55;;;;;;;37.45;18.52;;;3.10;99.90;;;;;;4998285;28;20049;-89
2022/03/18 04:00:21;;;;;;;35.75;18.05;;;3.10;99.90;;;;;;4997968;28;20046;-94
2022/03/18 04:02:47;;;;;;;36.45;17.77;;;3.20;99.90;;;;;;4982072;28;20041;-94
2022/03/18 04:05:13;;;;;;;35.50;17.27;;;3.20;99.90;;;;;;4982051;28;20129;-89
2022/03/18 04:07:41;;;;;;;30.02;17.95;;;3.20;99.90;;;;;;4997824;28;20501;-89
2022/03/18 04:10:09;;;;;;;32.47;18.67;;;3.30;99.90;;;;;;4998491;28;20412;-89
2022/03/18 04:12:36;;;;;;;35.00;18.42;;;3.50;99.90;;;;;;4981575;28;20107;-95
2022/03/18 04:15:08;;;;;;;27.77;16.83;;;3.30;99.90;;;;;;5014238;28;20042;-90
2022/03/18 04:17:52;;;;;;;32.80;18.23;;;3.40;99.90;;;;;;4997642;28;20050;-89
2022/03/18 04:20:21;;;;;;;33.83;17.67;;;3.30;99.90;;;;;;4998190;28;20409;-95
2022/03/18 04:22:47;;;;;;;29.73;17.30;;;3.40;99.90;;;;;;5014241;28;20050;-94
2022/03/18 04:25:13;;;;;;;27.35;17.42;;;3.40;99.90;;;;;;4981464;28;20065;-89
2022/03/18 04:27:39;;;;;;;36.60;17.90;;;3.40;99.90;;;;;;4997464;28;20054;-89
2022/03/18 04:30:07;;;;;;;36.65;17.25;;;3.40;99.90;;;;;;5013837;28;20042;-94
2022/03/18 04:32:33;;;;;;;34.13;17.75;;;3.50;99.90;;;;;;4997853;28;20231;-95
2022/03/18 04:35:00;;;;;;;34.90;17.85;;;3.50;99.90;;;;;;5014182;28;20076;-95
2022/03/18 04:37:27;;;;;;;37.20;18.20;;;3.50;99.90;;;;;;4981541;28;20050;-96
2022/03/18 04:39:52;;;;;;;30.45;18.20;;;3.50;99.90;;;;;;4981810;28;20100;-89
2022/03/18 04:42:18;;;;;;;33.92;18.00;;;3.50;99.90;;;;;;4981103;28;20049;-89
2022/03/18 04:44:44;;;;;;;35.72;17.92;;;3.50;99.90;;;;;;4997241;28;20049;-95
2022/03/18 04:47:11;;;;;;;27.83;15.88;;;3.50;99.90;;;;;;4981425;28;20050;-95
2022/03/18 04:49:37;;;;;;;27.65;15.48;;;3.50;99.90;;;;;;4981615;28;20046;-90
2022/03/18 04:52:04;;;;;;;31.60;14.70;;;3.40;99.90;;;;;;4997298;28;20105;-95
2022/03/18 04:54:29;;;;;;;27.30;14.82;;;3.20;99.90;;;;;;4981264;28;20049;-94
2022/03/18 04:59:40;;;;;;;28.43;14.40;;;2.90;99.90;;;;;;5013549;28;20085;-95
2022/03/18 05:02:06;;;;;;;24.87;13.60;;;2.70;99.90;;;;;;4980784;28;20085;-94
2022/03/18 05:04:33;;;;;;;25.33;15.93;;;2.50;99.90;;;;;;4997241;28;20042;-96
2022/03/18 05:06:58;;;;;;;30.73;15.37;;;2.40;99.90;;;;;;4981014;28;20440;-94
2022/03/18 05:09:25;;;;;;;29.70;16.33;;;2.20;99.90;;;;;;4996981;28;20042;-89
2022/03/18 05:11:51;;;;;;;30.40;14.93;;;2.10;99.90;;;;;;4996903;28;20081;-94
2022/03/18 05:14:17;;;;;;;28.67;15.43;;;2.10;99.90;;;;;;5013023;28;20038;-94
2022/03/18 05:16:43;;;;;;;25.30;14.73;;;1.80;99.90;;;;;;4980745;28;20191;-95
2022/03/18 05:19:10;;;;;;;29.03;16.07;;;1.60;99.90;;;;;;4980432;28;20203;-95
2022/03/18 05:21:37;;;;;;;32.37;18.87;;;1.70;99.90;;;;;;4980376;28;20061;-89
2022/03/18 05:24:03;;;;;;;32.70;21.03;;;1.50;99.90;;;;;;4996732;28;20053;-96
2022/03/18 05:26:29;;;;;;;40.70;19.40;;;1.40;99.90;;;;;;4980409;28;20060;-89
2022/03/18 05:28:55;;;;;;;29.87;17.53;;;1.40;99.90;;;;;;4996446;28;20042;-88
2022/03/18 05:31:21;;;;;;;37.10;18.50;;;1.30;99.90;;;;;;4996795;28;20034;-94
2022/03/18 05:33:47;;;;;;;29.23;17.90;;;1.30;99.90;;;;;;4980533;28;20050;-89
2022/03/18 05:36:14;;;;;;;37.37;19.13;;;1.20;99.90;;;;;;4996560;28;20119;-95
2022/03/18 05:38:39;;;;;;;37.63;18.80;;;1.20;99.90;;;;;;4980985;28;20084;-89
2022/03/18 05:41:05;;;;;;;34.00;19.40;;;1.10;99.90;;;;;;4979528;28;20041;-95
2022/03/18 05:43:31;;;;;;;37.60;19.03;;;1.00;99.90;;;;;;4980493;28;20045;-89
2022/03/18 05:45:57;;;;;;;30.90;17.83;;;0.90;99.90;;;;;;4980241;28;20132;-95
2022/03/18 05:48:22;;;;;;;33.50;20.20;;;0.80;99.90;;;;;;4981599;28;20045;-95
2022/03/18 05:50:48;;;;;;;34.03;18.60;;;0.70;99.90;;;;;;4980459;28;20056;-93
2022/03/18 05:53:14;;;;;;;41.63;18.77;;;0.70;99.90;;;;;;4979930;28;20211;-95
2022/03/18 05:58:24;;;;;;;38.17;21.57;;;0.50;99.90;;;;;;5012620;28;20096;-89
2022/03/18 06:00:50;;;;;;;39.13;22.40;;;0.50;99.90;;;;;;4979951;28;20484;-89
2022/03/18 06:03:16;;;;;;;57.87;24.47;;;0.60;99.90;;;;;;4980333;28;20046;-90
2022/03/18 06:05:44;;;;;;;49.57;25.77;;;0.50;99.90;;;;;;4996090;28;20041;-88
2022/03/18 06:13:39;;;;;;;57.53;26.70;;;0.60;99.90;;;;;;4999064;28;20076;-94
2022/03/18 06:16:05;;;;;;;56.80;28.40;;;0.60;99.90;;;;;;4996251;28;20045;-94
2022/03/18 06:18:30;;;;;;;53.70;28.30;;;0.60;99.90;;;;;;4996466;28;20049;-94
2022/03/18 06:20:56;;;;;;;54.93;29.60;;;0.70;99.90;;;;;;4995806;28;20045;-95
2022/03/18 06:23:22;;;;;;;53.23;28.00;;;0.70;99.90;;;;;;4996229;28;20056;-89
2022/03/18 06:25:47;;;;;;;57.27;32.30;;;0.80;99.90;;;;;;4980139;28;20052;-89
2022/03/18 06:28:13;;;;;;;54.67;28.27;;;0.80;99.90;;;;;;4980335;28;20058;-89
2022/03/18 06:30:39;;;;;;;57.17;31.47;;;0.80;99.90;;;;;;4980031;28;20050;-88
2022/03/18 06:33:05;;;;;;;62.33;30.80;;;0.90;99.90;;;;;;4995846;28;20484;-95
2022/03/18 06:35:31;;;;;;;56.00;30.60;;;0.90;99.90;;;;;;4979988;28;20038;-95
2022/03/18 06:37:57;;;;;;;59.10;33.47;;;0.90;99.90;;;;;;4979746;28;20070;-95
2022/03/18 06:40:22;;;;;;;53.27;31.63;;;0.90;99.90;;;;;;4996341;28;20113;-94
2022/03/18 06:42:48;;;;;;;55.37;31.53;;;1.00;99.90;;;;;;4979864;28;20069;-90
2022/03/18 06:45:14;;;;;;;50.63;28.67;;;1.00;99.90;;;;;;4996538;28;20157;-89
2022/03/18 06:47:40;;;;;;;46.87;28.23;;;1.10;99.90;;;;;;4995718;28;20509;-94
2022/03/18 06:50:08;;;;;;;55.97;32.53;;;1.10;99.90;;;;;;4979852;28;20129;-91
2022/03/18 06:52:34;;;;;;;51.47;30.77;;;1.10;99.90;;;;;;4999172;28;20046;-96
2022/03/18 06:55:00;;;;;;;61.83;33.07;;;1.20;99.90;;;;;;4982672;28;20045;-89
2022/03/18 06:57:26;;;;;;;55.77;33.50;;;1.50;99.90;;;;;;4983033;28;20081;-95
2022/03/18 06:59:51;;;;;;;53.13;33.77;;;1.50;99.90;;;;;;4982918;28;20042;-94
2022/03/18 07:02:17;;;;;;;64.37;36.47;;;1.50;99.90;;;;;;4999356;28;20072;-89
2022/03/18 07:04:43;;;;;;;56.80;34.33;;;1.60;99.90;;;;;;4983341;28;20222;-94
2022/03/18 07:07:09;;;;;;;56.40;33.70;;;1.70;99.90;;;;;;4982902;28;20053;-89
2022/03/18 07:09:36;;;;;;;66.33;38.47;;;1.80;99.90;;;;;;4999354;28;20049;-94
2022/03/18 07:12:02;;;;;;;63.00;38.00;;;1.90;99.90;;;;;;4982918;28;20042;-90
2022/03/18 07:14:28;;;;;;;68.20;35.47;;;2.10;99.90;;;;;;4982834;28;20108;-91
2022/03/18 07:19:38;;;;;;;66.93;37.10;;;2.30;99.90;;;;;;5001749;28;20053;-95
2022/03/18 07:22:05;;;;;;;60.90;38.00;;;2.40;99.90;;;;;;4999031;28;20042;-93
2022/03/18 07:24:31;;;;;;;66.40;41.83;;;2.50;99.90;;;;;;4999131;28;20088;-89
2022/03/18 07:26:57;;;;;;;74.27;44.63;;;2.60;99.90;;;;;;4982691;28;20046;-95
2022/03/18 07:29:23;;;;;;;72.23;45.63;;;2.90;99.90;;;;;;4982687;28;20496;-92
2022/03/18 07:31:51;;;;;;;77.10;45.80;;;3.10;99.90;;;;;;4999496;28;20129;-91
2022/03/18 07:34:16;;;;;;;85.37;50.23;;;3.30;99.90;;;;;;5015352;28;20050;-91
2022/03/18 07:36:42;;;;;;;79.37;46.03;;;3.50;99.90;;;;;;4982276;28;20069;-90
2022/03/18 07:39:08;;;;;;;75.25;45.30;;;3.70;99.90;;;;;;4983289;28;20046;-90
2022/03/18 07:41:35;;;;;;;83.07;47.75;;;3.90;99.90;;;;;;4982410;28;20045;-90
2022/03/18 07:44:01;;;;;;;73.40;46.22;;;4.10;99.90;;;;;;4982806;28;20436;-91
2022/03/18 07:46:27;;;;;;;77.20;46.47;;;4.30;99.90;;;;;;5014877;28;20056;-93
2022/03/18 07:48:53;;;;;;;70.90;44.35;;;4.60;99.90;;;;;;4982495;28;20042;-91
2022/03/18 07:51:18;;;;;;;64.97;41.03;;;5.00;99.90;;;;;;4982248;28;20046;-92
2022/03/18 07:53:44;;;;;;;71.85;39.20;;;5.20;99.90;;;;;;4982521;28;20046;-93
2022/03/18 07:56:10;;;;;;;69.15;38.53;;;5.20;99.90;;;;;;4981852;28;20054;-91
2022/03/18 07:58:35;;;;;;;70.47;30.67;;;5.40;99.90;;;;;;4982984;28;20123;-92
2022/03/18 08:01:01;;;;;;;65.40;34.30;;;5.60;99.90;;;;;;4982104;28;20497;-90
2022/03/18 08:03:27;;;;;;;57.28;33.40;;;5.80;99.90;;;;;;4997996;28;20157;-90
2022/03/18 08:05:53;;;;;;;47.70;29.80;;;5.90;99.90;;;;;;4981727;28;20046;-90
2022/03/18 08:08:19;;;;;;;52.65;27.45;;;6.10;99.90;;;;;;4982633;28;20467;-90
2022/03/18 08:10:44;;;;;;;59.75;29.20;;;6.30;99.90;;;;;;4981956;28;20385;-93
2022/03/18 08:13:10;;;;;;;58.15;28.05;;;6.40;99.90;;;;;;4998381;28;20037;-92
2022/03/18 08:15:36;;;;;;;57.28;26.70;;;6.50;99.90;;;;;;4982179;28;20042;-92
2022/03/18 08:18:02;;;;;;;48.67;26.35;;;6.50;99.90;;;;;;4981889;28;20099;-93
2022/03/18 08:20:29;;;;;;;46.20;25.08;;;6.60;99.90;;;;;;4982294;28;20138;-92
2022/03/18 08:22:55;;;;;;;40.42;22.13;;;6.70;99.90;;;;;;4998360;28;20488;-94
2022/03/18 08:25:21;;;;;;;47.95;22.30;;;7.00;99.90;;;;;;4981841;28;20133;-93
2022/03/18 08:27:48;;;;;;;55.33;23.50;;;7.20;99.90;;;;;;4982759;28;20503;-94
2022/03/18 08:30:14;;;;;;;48.58;21.63;;;7.10;99.90;;;;;;4981921;28;20177;-91
2022/03/18 08:32:41;;;;;;;40.20;22.45;;;7.10;99.90;;;;;;4998145;28;20085;-93
2022/03/18 08:35:08;;;;;;;46.10;22.45;;;7.10;99.90;;;;;;4998267;28;20041;-93
2022/03/18 08:40:19;;;;;;;46.28;20.35;;;7.20;99.90;;;;;;5014185;28;20061;-93
2022/03/18 08:42:44;;;;;;;45.25;22.55;;;7.30;99.90;;;;;;4981608;28;20042;-95
2022/03/18 08:45:10;;;;;;;45.35;21.45;;;7.30;99.90;;;;;;4981398;28;20512;-93
2022/03/18 08:47:36;;;;;;;46.53;20.67;;;7.50;99.90;;;;;;4981930;28;20046;-93
2022/03/18 08:50:03;;;;;;;44.60;19.00;;;7.60;99.90;;;;;;4981136;28;20046;-92
2022/03/18 08:52:28;;;;;;;40.67;19.40;;;7.70;99.90;;;;;;4981442;28;20050;-91
2022/03/18 08:54:54;;;;;;;45.35;22.30;;;7.80;99.90;;;;;;4981284;28;20042;-92
2022/03/18 08:57:20;;;;;;;47.00;19.50;;;7.70;99.90;;;;;;4997544;28;20141;-90
2022/03/18 08:59:46;;;;;;;41.42;19.30;;;7.90;99.90;;;;;;4981483;28;20075;-91
2022/03/18 09:02:11;;;;;;;41.97;18.42;;;8.00;99.90;;;;;;4981041;28;20172;-92
2022/03/18 09:04:37;;;;;;;41.28;17.15;;;8.00;99.90;;;;;;4997110;28;20093;-89
2022/03/18 09:07:03;;;;;;;36.15;15.55;;;8.30;99.90;;;;;;4980948;28;20049;-94
2022/03/18 09:09:29;;;;;;;44.65;16.70;;;8.30;99.90;;;;;;4981134;28;20420;-93
2022/03/18 09:11:55;;;;;;;34.53;13.45;;;8.40;99.90;;;;;;4996740;28;20050;-94
2022/03/18 09:14:21;;;;;;;31.70;13.23;;;8.50;99.90;;;;;;4980347;28;20042;-90
2022/03/18 09:16:49;;;;;;;30.90;10.45;;;8.60;99.90;;;;;;4980609;28;20092;-91
2022/03/18 09:19:15;;;;;;;38.13;11.05;;;8.70;99.90;;;;;;4997417;28;20102;-93
2022/03/18 09:21:41;;;;;;;34.75;11.95;;;8.70;99.90;;;;;;4996698;28;20137;-94
2022/03/18 09:24:07;;;;;;;31.98;9.68;;;8.90;99.90;;;;;;5013355;28;20041;-91
2022/03/18 09:26:33;;;;;;;33.90;10.43;;;9.00;99.90;;;;;;4997054;28;20132;-92
2022/03/18 09:28:59;;;;;;;35.70;9.98;;;8.90;99.90;;;;;;4981747;28;20049;-91
2022/03/18 09:31:25;;;;;;;42.38;11.27;;;9.20;99.90;;;;;;4980871;28;20038;-94
2022/03/18 09:33:51;;;;;;;36.22;11.48;;;9.10;99.90;;;;;;4981121;28;20049;-91
2022/03/18 09:36:18;;;;;;;32.38;10.30;;;9.30;99.90;;;;;;4980716;28;20413;-91
2022/03/18 09:38:46;;;;;;;28.48;10.35;;;9.40;99.90;;;;;;4981102;28;20042;-95
2022/03/18 09:41:12;;;;;;;36.75;9.98;;;9.40;99.90;;;;;;4997001;28;20049;-95
2022/03/18 09:43:40;;;;;;;29.52;9.00;;;9.50;99.90;;;;;;4981111;28;20400;-91
2022/03/18 09:46:10;;;;;;;23.42;9.07;;;9.60;99.90;;;;;;4981238;28;20050;-91
2022/03/18 09:48:37;;;;;;;30.98;10.07;;;9.70;77.40;;;;;;4996946;28;20504;-94
2022/03/18 09:51:03;;;;;;;33.85;10.00;;;9.80;71.50;;;;;;4996820;28;20413;-94
2022/03/18 09:53:28;;;;;;;35.70;11.63;;;9.90;86.10;;;;;;4982425;28;20058;-94
2022/03/18 09:55:54;;;;;;;29.27;9.50;;;10.00;99.40;;;;;;4980330;28;20132;-93
2022/03/18 09:58:22;;;;;;;22.08;9.85;;;10.10;88.00;;;;;;4996608;28;20060;-92
2022/03/18 10:00:50;;;;;;;27.33;9.73;;;10.20;55.90;;;;;;5013084;28;20092;-93
2022/03/18 10:03:17;;;;;;;21.42;7.28;;;10.40;1.00;;;;;;4980567;28;20053;-94
2022/03/18 10:05:59;;;;;;;22.05;6.50;;;10.50;1.00;;;;;;4996768;28;20503;-93
2022/03/18 10:08:45;;;;;;;28.23;6.75;;;10.70;1.00;;;;;;4996676;28;20052;-92
2022/03/18 10:11:15;;;;;;;23.17;6.18;;;11.10;1.00;;;;;;4996228;28;20562;-95
2022/03/18 10:13:51;;;;;;;28.27;6.78;;;12.10;1.00;;;;;;4997592;28;20504;-92
2022/03/18 10:16:47;;;;;;;19.42;5.55;;;13.30;1.00;;;;;;4996968;28;20050;-92
2022/03/18 10:19:16;;;;;;;21.63;5.97;;;14.30;99.90;;;;;;4990131;28;20104;-92
2022/03/18 10:22:02;;;;;;;22.48;5.65;;;15.30;1.00;;;;;;4996266;28;20136;-93
2022/03/18 10:24:32;;;;;;;23.02;6.53;;;16.00;62.50;;;;;;5012926;28;20133;-94
2022/03/18 10:27:13;;;;;;;20.30;4.97;;;16.30;94.10;;;;;;5015946;28;20477;-95
2022/03/18 10:29:48;;;;;;;13.95;3.92;;;16.70;1.00;;;;;;4984989;28;20553;-92
2022/03/18 10:32:16;;;;;;;16.08;4.57;;;16.90;1.00;;;;;;5000089;28;20045;-94
2022/03/18 10:37:59;;;;;;;18.83;6.28;;;17.70;99.90;;;;;;5016355;28;20057;-92
2022/03/18 10:40:34;;;;;;;20.83;4.43;;;18.00;99.90;;;;;;4972645;28;20052;-93
2022/03/18 10:43:03;;;;;;;21.02;4.78;;;17.90;99.90;;;;;;5001117;28;20132;-92
2022/03/18 10:45:29;;;;;;;15.00;4.40;;;17.80;99.90;;;;;;4999858;28;20050;-93
2022/03/18 10:48:13;;;;;;;15.27;4.45;;;17.90;99.90;;;;;;4983643;28;20041;-92
2022/03/18 10:50:40;;;;;;;15.40;4.65;;;18.00;99.90;;;;;;5001693;28;20394;-94
2022/03/18 10:53:10;;;;;;;19.83;5.28;;;18.50;99.90;;;;;;4983548;28;20420;-93
2022/03/18 10:55:44;;;;;;;20.00;5.28;;;18.80;99.90;;;;;;5016324;28;20050;-94
2022/03/18 10:58:15;;;;;;;16.42;3.88;;;19.50;99.90;;;;;;4999828;28;20046;-92
2022/03/18 11:00:43;;;;;;;14.00;4.28;;;19.90;56.70;;;;;;4999684;28;20081;-95
2022/03/18 11:03:09;;;;;;;19.05;4.00;;;19.70;1.00;;;;;;4983318;28;20046;-91
2022/03/18 11:05:40;;;;;;;17.63;4.05;;;19.70;1.00;;;;;;4983064;28;20049;-93
2022/03/18 11:08:14;;;;;;;16.98;4.43;;;19.80;1.00;;;;;;4999671;28;20154;-93
2022/03/18 11:13:29;;;;;;;17.23;4.65;;;18.80;1.00;;;;;;5015864;28;20052;-94
2022/03/18 11:15:55;;;;;;;16.70;4.53;;;19.10;1.00;;;;;;4999096;28;20136;-94
2022/03/18 11:18:21;;;;;;;15.13;3.60;;;19.10;1.00;;;;;;4983547;28;20045;-95
2022/03/18 11:20:50;;;;;;;14.00;4.55;;;19.30;1.00;;;;;;4999236;28;20128;-93
2022/03/18 11:23:18;;;;;;;15.90;4.07;;;19.90;1.00;;;;;;4983448;28;20042;-95
2022/03/18 11:25:47;;;;;;;17.10;4.43;;;20.30;1.00;;;;;;4999592;28;20038;-93
2022/03/18 11:28:15;;;;;;;15.10;4.13;;;20.80;1.00;;;;;;4982995;28;20045;-95
2022/03/18 11:30:41;;;;;;;13.80;3.92;;;20.50;1.00;;;;;;4999193;28;20046;-94
2022/03/18 11:33:10;;;;;;;13.88;3.83;;;20.20;1.00;;;;;;4982975;28;20046;-94
2022/03/18 11:35:51;;;;;;;16.30;3.80;;;20.50;1.00;;;;;;4999170;28;20050;-95
2022/03/18 11:38:23;;;;;;;18.45;4.38;;;20.50;1.00;;;;;;4998259;28;20133;-93
2022/03/18 11:41:01;;;;;;;16.95;4.43;;;20.50;1.00;;;;;;4998886;28;20552;-95
2022/03/18 11:43:34;;;;;;;16.00;4.65;;;20.70;1.00;;;;;;4982918;28;20045;-95
2022/03/18 11:46:15;;;;;;;16.15;3.78;;;20.60;1.00;;;;;;4998736;28;20054;-94
2022/03/18 11:48:54;;;;;;;15.77;3.80;;;20.20;1.00;;;;;;5015191;28;20049;-94
2022/03/18 11:51:33;;;;;;;13.25;3.50;;;18.90;1.00;;;;;;4999800;28;20046;-92
2022/03/18 11:54:05;;;;;;;23.50;5.75;;;18.40;1.00;;;;;;4998756;28;20050;-93
2022/03/18 11:56:41;;;;;;;20.73;4.57;;;18.20;1.00;;;;;;4982342;28;20115;-93
2022/03/18 11:59:27;;;;;;;15.48;3.63;;;18.40;1.00;;;;;;4998615;28;20068;-92
2022/03/18 12:01:54;;;;;;;16.27;4.95;;;18.30;1.00;;;;;;4998352;28;20046;-95
2022/03/18 12:04:43;;;;;;;15.45;4.45;;;18.10;1.00;;;;;;4982681;28;20096;-92
2022/03/18 12:07:20;;;;;;;18.30;4.88;;;17.80;1.00;;;;;;4982186;28;20050;-96
2022/03/18 12:09:57;;;;;;;16.95;4.18;;;17.90;1.00;;;;;;4982787;28;20480;-94
2022/03/18 12:12:25;;;;;;;14.68;4.45;;;18.00;1.00;;;;;;4998866;28;20049;-94
2022/03/18 12:14:52;;;;;;;17.08;4.28;;;18.10;1.00;;;;;;4998387;28;20263;-92
2022/03/18 12:17:18;;;;;;;16.38;4.50;;;18.10;1.00;;;;;;4982334;28;20049;-94
2022/03/18 12:19:57;;;;;;;21.23;5.00;;;18.10;1.00;;;;;;4982005;28;20523;-92
2022/03/18 12:22:24;;;;;;;14.48;3.83;;;18.10;1.00;;;;;;4982141;28;20485;-93
2022/03/18 12:24:54;;;;;;;19.35;4.95;;;18.10;1.00;;;;;;4998286;28;20590;-93
2022/03/18 12:27:26;;;;;;;18.33;4.25;;;18.30;1.00;;;;;;4998111;28;20046;-93
2022/03/18 12:29:59;;;;;;;18.08;4.18;;;18.30;1.00;;;;;;5014903;28;20049;-93
2022/03/18 12:32:25;;;;;;;16.25;4.22;;;18.30;1.00;;;;;;5015431;28;20045;-93
2022/03/18 12:34:53;;;;;;;23.17;6.28;;;18.10;1.00;;;;;;4998220;28;20046;-92
2022/03/18 12:37:23;;;;;;;20.67;4.25;;;17.90;1.00;;;;;;4998165;28;20061;-92
2022/03/18 12:40:06;;;;;;;17.20;4.03;;;17.80;1.00;;;;;;4997755;28;20140;-92
2022/03/18 12:42:52;;;;;;;15.80;3.72;;;17.90;1.00;;;;;;5014072;28;20041;-93
2022/03/18 12:45:37;;;;;;;17.67;4.35;;;17.50;1.00;;;;;;4997138;28;20054;-94
2022/03/18 12:48:06;;;;;;;15.50;4.20;;;17.40;1.00;;;;;;4997845;28;20038;-94
2022/03/18 12:50:35;;;;;;;20.40;4.10;;;17.20;1.00;;;;;;4997894;28;20046;-94
2022/03/18 12:53:09;;;;;;;18.63;3.58;;;16.90;1.00;;;;;;4997403;28;20048;-94
2022/03/18 12:55:34;;;;;;;17.25;3.78;;;16.60;1.00;;;;;;4997369;28;20066;-94
2022/03/18 12:58:01;;;;;;;19.83;3.97;;;16.50;1.00;;;;;;5014480;28;20100;-92
2022/03/18 13:00:28;;;;;;;17.20;4.75;;;16.50;1.00;;;;;;4981665;28;20432;-93
2022/03/18 13:02:54;;;;;;;19.52;3.97;;;16.40;1.00;;;;;;4981307;28;20046;-93
2022/03/18 13:05:26;;;;;;;17.85;4.63;;;16.20;1.00;;;;;;4981128;28;20042;-93
2022/03/18 13:07:58;;;;;;;16.00;4.00;;;15.90;1.00;;;;;;5014145;28;20049;-92
2022/03/18 13:10:23;;;;;;;22.88;4.93;;;16.10;1.00;;;;;;4998205;28;20053;-93
2022/03/18 13:12:49;;;;;;;17.45;3.67;;;16.30;1.00;;;;;;4981017;28;20046;-91